Time;durP1;ratioP1;P1;durP2;ratioP2;P2;SDS_P1;SDS_P2;PMS_P1;PMS_P2;Temp;Humidity;BMP_temperature;BMP_pressure;BME280_temperature;BME280_humidity;BME280_pressure;Samples;Min_cycle;Max_cycle;Signal;HPM_P1;HPM_P2
2024/03/10 00:00:08;;;;;;;26.48;10.80;;;;;;;;;;5053849;28;20072;-67
2024/03/10 00:02:53;;;;;;;29.25;12.35;;;;;;;;;;5056340;28;20028;-67
2024/03/10 00:05:39;;;;;;;27.52;11.27;;;;;;;;;;5071601;28;20028;-67
2024/03/10 00:08:25;;;;;;;28.83;12.15;;;;;;;;;;5072968;28;20020;-67
2024/03/10 00:11:10;;;;;;;29.52;11.85;;;;;;;;;;5072864;28;20078;-66
2024/03/10 00:13:56;;;;;;;29.70;12.60;;;;;;;;;;5072825;28;20028;-67
2024/03/10 00:16:42;;;;;;;29.45;12.48;;;;;;;;;;5072067;28;20098;-67
2024/03/10 00:19:27;;;;;;;26.83;11.88;;;;;;;;;;5073303;28;20021;-66
2024/03/10 00:22:13;;;;;;;34.35;12.07;;;;;;;;;;5073887;28;20020;-66
2024/03/10 00:24:58;;;;;;;40.45;14.43;;;;;;;;;;5073304;28;20108;-66
2024/03/10 00:27:44;;;;;;;29.60;13.25;;;;;;;;;;5071991;28;20024;-67
2024/03/10 00:30:31;;;;;;;29.63;11.68;;;;;;;;;;5072629;28;20012;-66
2024/03/10 00:33:17;;;;;;;30.13;11.18;;;;;;;;;;5071314;28;20107;-67
2024/03/10 00:36:05;;;;;;;31.50;12.05;;;;;;;;;;5053079;28;20090;-67
2024/03/10 00:38:51;;;;;;;26.30;12.52;;;;;;;;;;5054144;28;20075;-67
2024/03/10 00:41:36;;;;;;;32.28;13.52;;;;;;;;;;5069613;28;20493;-68
2024/03/10 00:44:22;;;;;;;33.10;13.07;;;;;;;;;;5070012;28;20032;-67
2024/03/10 00:47:08;;;;;;;34.72;14.05;;;;;;;;;;5070162;28;20108;-67
2024/03/10 00:49:53;;;;;;;35.50;13.10;;;;;;;;;;5072736;28;20020;-66
2024/03/10 00:52:40;;;;;;;34.70;12.90;;;;;;;;;;5062326;28;20040;-67
2024/03/10 00:55:26;;;;;;;34.53;14.30;;;;;;;;;;5052003;28;20108;-67
2024/03/10 00:58:12;;;;;;;35.83;14.07;;;;;;;;;;5051796;28;20513;-67
2024/03/10 01:00:57;;;;;;;40.28;14.02;;;;;;;;;;5053271;28;20029;-66
2024/03/10 01:03:43;;;;;;;33.60;13.32;;;;;;;;;;5089995;28;20019;-67
2024/03/10 01:06:29;;;;;;;41.45;14.75;;;;;;;;;;5092250;28;20482;-67
2024/03/10 01:09:18;;;;;;;35.65;13.65;;;;;;;;;;5092567;28;20019;-66
2024/03/10 01:12:04;;;;;;;37.55;14.63;;;;;;;;;;5086750;28;20035;-66
2024/03/10 01:14:49;;;;;;;30.13;14.23;;;;;;;;;;5072099;28;20091;-67
2024/03/10 01:17:35;;;;;;;34.75;14.35;;;;;;;;;;5071557;28;20039;-66
2024/03/10 01:20:21;;;;;;;38.30;14.65;;;;;;;;;;5072279;28;20036;-67
2024/03/10 01:23:07;;;;;;;33.03;13.30;;;;;;;;;;5091327;28;20028;-67
2024/03/10 01:25:53;;;;;;;37.97;15.52;;;;;;;;;;5092636;28;20024;-67
2024/03/10 01:28:38;;;;;;;35.72;13.50;;;;;;;;;;5093304;28;20028;-67
2024/03/10 01:31:26;;;;;;;40.38;16.08;;;;;;;;;;5083622;28;20444;-67
2024/03/10 01:34:11;;;;;;;42.80;15.13;;;;;;;;;;5051909;28;20032;-67
2024/03/10 01:36:57;;;;;;;39.75;14.60;;;;;;;;;;5052594;28;20516;-67
2024/03/10 01:39:42;;;;;;;39.53;15.40;;;;;;;;;;5052417;28;20025;-66
2024/03/10 01:42:28;;;;;;;42.80;17.52;;;;;;;;;;5065518;28;20025;-67
2024/03/10 01:45:14;;;;;;;41.65;14.32;;;;;;;;;;5069802;28;20083;-68
2024/03/10 01:48:02;;;;;;;30.63;14.40;;;;;;;;;;5069028;28;20025;-67
2024/03/10 01:50:47;;;;;;;32.20;15.20;;;;;;;;;;5070459;28;20028;-67
2024/03/10 01:53:35;;;;;;;43.17;16.83;;;;;;;;;;5070046;28;20033;-67
2024/03/10 01:56:20;;;;;;;33.67;14.73;;;;;;;;;;5051174;28;20029;-67
2024/03/10 01:59:09;;;;;;;37.72;16.27;;;;;;;;;;5051925;28;20056;-67
2024/03/10 02:01:54;;;;;;;43.00;16.58;;;;;;;;;;5056579;28;20036;-67
2024/03/10 02:04:40;;;;;;;44.72;16.08;;;;;;;;;;5052265;28;20025;-66
2024/03/10 02:07:25;;;;;;;34.42;15.30;;;;;;;;;;5051779;28;20021;-67
2024/03/10 02:10:11;;;;;;;42.63;16.00;;;;;;;;;;5091588;28;20493;-66
2024/03/10 02:12:57;;;;;;;37.67;15.50;;;;;;;;;;5083619;28;20020;-67
2024/03/10 02:15:43;;;;;;;36.53;15.90;;;;;;;;;;5071040;28;20071;-66
2024/03/10 02:18:29;;;;;;;39.75;15.07;;;;;;;;;;5051454;28;20368;-67
2024/03/10 02:21:18;;;;;;;42.65;17.17;;;;;;;;;;5052819;28;20553;-67
2024/03/10 02:24:16;;;;;;;39.03;14.73;;;;;;;;;;5082585;28;20036;-67
2024/03/10 02:27:02;;;;;;;44.90;16.58;;;;;;;;;;5089112;28;20023;-68
2024/03/10 02:30:05;;;;;;;44.75;16.00;;;;;;;;;;5085203;28;20066;-67
2024/03/10 02:48:24;;;;;;;46.13;16.60;;;;;;;;;;5056860;28;20083;-68
2024/03/10 02:51:10;;;;;;;51.35;19.42;;;;;;;;;;5064713;28;20037;-67
2024/03/10 02:53:56;;;;;;;48.75;17.25;;;;;;;;;;5054904;28;20072;-67
2024/03/10 02:56:41;;;;;;;39.88;15.93;;;;;;;;;;5058345;28;20032;-67
2024/03/10 02:59:29;;;;;;;36.20;15.50;;;;;;;;;;5080094;28;20503;-67
2024/03/10 03:02:18;;;;;;;49.53;16.90;;;;;;;;;;5069993;28;20025;-67
2024/03/10 03:05:04;;;;;;;38.40;17.55;;;;;;;;;;5054302;28;20056;-66
2024/03/10 03:07:50;;;;;;;43.17;17.52;;;;;;;;;;5055753;28;20025;-67
2024/03/10 03:10:36;;;;;;;49.97;19.70;;;;;;;;;;5054478;28;20021;-67
2024/03/10 03:13:21;;;;;;;42.65;17.38;;;;;;;;;;5063766;28;20024;-67
2024/03/10 03:16:09;;;;;;;42.88;17.63;;;;;;;;;;5073781;28;20035;-67
2024/03/10 03:18:56;;;;;;;40.40;18.45;;;;;;;;;;5074039;28;20549;-67
2024/03/10 03:21:42;;;;;;;46.20;18.15;;;;;;;;;;5083575;28;20059;-67
2024/03/10 03:24:28;;;;;;;50.92;19.25;;;;;;;;;;5077370;28;20056;-67
2024/03/10 03:27:14;;;;;;;52.30;19.40;;;;;;;;;;5069180;28;20031;-67
2024/03/10 03:30:00;;;;;;;51.22;18.63;;;;;;;;;;5071591;28;20021;-67
2024/03/10 03:32:45;;;;;;;48.78;19.70;;;;;;;;;;5074015;28;20051;-67
2024/03/10 03:35:31;;;;;;;47.65;19.10;;;;;;;;;;5073946;28;20474;-67
2024/03/10 03:38:17;;;;;;;43.35;19.77;;;;;;;;;;5054818;28;20465;-68
2024/03/10 03:41:03;;;;;;;49.58;20.13;;;;;;;;;;5059378;28;20036;-67
2024/03/10 03:43:49;;;;;;;55.92;21.88;;;;;;;;;;5055047;28;20017;-67
2024/03/10 03:46:35;;;;;;;55.33;19.85;;;;;;;;;;5074096;28;20025;-66
2024/03/10 03:49:21;;;;;;;52.33;20.05;;;;;;;;;;5073643;28;20478;-67
2024/03/10 03:52:06;;;;;;;53.35;21.40;;;;;;;;;;5073160;28;20098;-67
2024/03/10 03:54:52;;;;;;;55.13;19.25;;;;;;;;;;5068504;28;20029;-67
2024/03/10 03:57:38;;;;;;;50.67;20.50;;;;;;;;;;5055147;28;20492;-67
2024/03/10 04:00:23;;;;;;;62.20;21.00;;;;;;;;;;5059283;28;20120;-67
2024/03/10 04:03:09;;;;;;;55.92;20.13;;;;;;;;;;5052328;28;20025;-67
2024/03/10 04:05:55;;;;;;;56.08;21.20;;;;;;;;;;5058406;28;20032;-67
2024/03/10 04:08:41;;;;;;;58.72;20.65;;;;;;;;;;5054000;28;20024;-67
2024/03/10 04:11:27;;;;;;;52.97;21.08;;;;;;;;;;5066473;28;20020;-67
2024/03/10 04:14:13;;;;;;;49.28;21.95;;;;;;;;;;5094632;28;20024;-67
2024/03/10 04:16:59;;;;;;;61.67;21.63;;;;;;;;;;5093475;28;20028;-67
2024/03/10 04:19:45;;;;;;;57.22;20.83;;;;;;;;;;5069188;28;20513;-67
2024/03/10 04:22:30;;;;;;;52.58;20.40;;;;;;;;;;5051946;28;20033;-67
2024/03/10 04:25:16;;;;;;;49.67;21.17;;;;;;;;;;5061689;28;20502;-67
2024/03/10 04:28:02;;;;;;;53.95;19.92;;;;;;;;;;5054376;28;20505;-67
2024/03/10 04:30:48;;;;;;;57.03;21.85;;;;;;;;;;5054108;28;20410;-67
2024/03/10 04:33:34;;;;;;;51.33;19.58;;;;;;;;;;5053214;28;20028;-67
2024/03/10 04:36:20;;;;;;;46.63;18.42;;;;;;;;;;5060046;28;20478;-67
2024/03/10 04:39:09;;;;;;;56.35;22.20;;;;;;;;;;5054333;28;20055;-67
2024/03/10 04:41:55;;;;;;;54.33;20.38;;;;;;;;;;5054274;28;20025;-67
2024/03/10 04:44:41;;;;;;;68.47;22.63;;;;;;;;;;5070384;28;20020;-66
2024/03/10 04:47:26;;;;;;;53.00;21.55;;;;;;;;;;5072300;28;20029;-66
2024/03/10 04:50:12;;;;;;;58.30;21.60;;;;;;;;;;5057567;28;20029;-67
2024/03/10 04:52:58;;;;;;;57.97;20.33;;;;;;;;;;5053873;28;20021;-67
2024/03/10 04:55:43;;;;;;;70.22;24.60;;;;;;;;;;5077961;28;20111;-67
2024/03/10 04:58:29;;;;;;;56.38;21.88;;;;;;;;;;5071642;28;20027;-67
2024/03/10 05:01:16;;;;;;;58.00;21.90;;;;;;;;;;5071382;28;20017;-67
2024/03/10 05:04:02;;;;;;;58.45;21.60;;;;;;;;;;5071610;28;20378;-66
2024/03/10 05:06:48;;;;;;;54.80;21.80;;;;;;;;;;5071937;28;20056;-67
2024/03/10 05:09:33;;;;;;;49.25;20.45;;;;;;;;;;5071930;28;20028;-66
2024/03/10 05:12:19;;;;;;;51.47;21.17;;;;;;;;;;5077439;28;20028;-67
2024/03/10 05:15:05;;;;;;;53.22;21.80;;;;;;;;;;5092797;28;20493;-67
2024/03/10 05:17:52;;;;;;;55.63;21.40;;;;;;;;;;5114533;22;20051;-69
2024/03/10 05:20:37;;;;;;;49.60;22.58;;;;;;;;;;5092177;28;20078;-70
2024/03/10 05:23:24;;;;;;;60.90;23.25;;;;;;;;;;5072803;28;20104;-69
2024/03/10 05:26:10;;;;;;;61.08;23.63;;;;;;;;;;5056406;28;20032;-68
2024/03/10 05:28:55;;;;;;;61.85;20.60;;;;;;;;;;5072451;28;20028;-70
2024/03/10 05:31:43;;;;;;;62.28;22.98;;;;;;;;;;5071673;28;20112;-68
2024/03/10 05:34:28;;;;;;;55.42;23.35;;;;;;;;;;5063192;28;20027;-71
2024/03/10 05:37:14;;;;;;;59.25;22.75;;;;;;;;;;5071107;28;20107;-70
2024/03/10 05:40:00;;;;;;;62.22;22.85;;;;;;;;;;5065599;28;20029;-68
2024/03/10 05:42:46;;;;;;;56.70;21.27;;;;;;;;;;5071187;28;20052;-69
2024/03/10 05:45:32;;;;;;;68.85;22.80;;;;;;;;;;5074020;28;20041;-70
2024/03/10 05:48:18;;;;;;;55.88;23.85;;;;;;;;;;5070484;28;20021;-68
2024/03/10 05:51:04;;;;;;;58.38;21.15;;;;;;;;;;5071928;28;20093;-69
2024/03/10 05:53:49;;;;;;;54.63;21.63;;;;;;;;;;5071810;28;20035;-69
2024/03/10 05:56:35;;;;;;;50.08;21.05;;;;;;;;;;5061381;28;20052;-70
2024/03/10 05:59:21;;;;;;;56.85;22.35;;;;;;;;;;5092857;28;20618;-69
2024/03/10 06:02:07;;;;;;;62.58;24.08;;;;;;;;;;5081628;28;20033;-68
2024/03/10 06:04:56;;;;;;;52.08;23.80;;;;;;;;;;5075224;28;20486;-68
2024/03/10 06:07:44;;;;;;;58.97;22.42;;;;;;;;;;5069799;28;20054;-68
2024/03/10 06:10:30;;;;;;;58.70;22.02;;;;;;;;;;5095538;28;20031;-69
2024/03/10 06:13:16;;;;;;;53.28;20.30;;;;;;;;;;5095987;28;20031;-68
2024/03/10 06:16:02;;;;;;;59.13;21.73;;;;;;;;;;5095802;28;20497;-68
2024/03/10 06:27:51;;;;;;;55.35;21.45;;;;;;;;;;5075637;28;20032;-71
2024/03/10 06:30:37;;;;;;;64.68;22.25;;;;;;;;;;5079776;28;20486;-70
2024/03/10 06:33:23;;;;;;;56.10;21.17;;;;;;;;;;5075225;28;20027;-70
2024/03/10 06:36:08;;;;;;;56.38;22.10;;;;;;;;;;5082841;23;20020;-70
2024/03/10 06:38:54;;;;;;;62.05;21.77;;;;;;;;;;5036354;28;20029;-70
2024/03/10 06:41:40;;;;;;;57.42;20.88;;;;;;;;;;5035095;28;20039;-70
2024/03/10 06:44:25;;;;;;;54.47;21.50;;;;;;;;;;5033371;28;20036;-70
2024/03/10 06:47:11;;;;;;;59.72;20.85;;;;;;;;;;5045162;28;20021;-68
2024/03/10 06:49:57;;;;;;;55.22;22.27;;;;;;;;;;5054783;28;20546;-70
2024/03/10 06:52:45;;;;;;;54.15;20.73;;;;;;;;;;5054921;28;20032;-70
2024/03/10 06:55:30;;;;;;;53.38;20.80;;;;;;;;;;5041184;28;20029;-71
2024/03/10 06:58:17;;;;;;;54.80;21.00;;;;;;;;;;5054330;28;20021;-71
2024/03/10 07:01:03;;;;;;;55.00;20.33;;;;;;;;;;5053766;28;20082;-71
2024/03/10 07:03:49;;;;;;;50.17;20.15;;;;;;;;;;5040451;28;20025;-70
2024/03/10 07:06:34;;;;;;;46.40;20.83;;;;;;;;;;5052662;28;20025;-70
2024/03/10 07:09:23;;;;;;;64.00;22.23;;;;;;;;;;5054018;28;20044;-70
2024/03/10 07:12:09;;;;;;;52.42;22.23;;;;;;;;;;5036227;28;20029;-70
2024/03/10 07:14:55;;;;;;;56.33;21.92;;;;;;;;;;5039508;28;20445;-70
2024/03/10 07:17:41;;;;;;;55.80;21.30;;;;;;;;;;5052733;28;20017;-70
2024/03/10 07:20:26;;;;;;;51.97;19.90;;;;;;;;;;5055463;28;20025;-71
2024/03/10 07:23:12;;;;;;;53.47;19.17;;;;;;;;;;5053997;28;20059;-70
2024/03/10 07:25:58;;;;;;;47.80;20.13;;;;;;;;;;5055059;28;20021;-70
2024/03/10 07:28:43;;;;;;;55.35;21.98;;;;;;;;;;5038281;28;20100;-69
2024/03/10 07:31:29;;;;;;;60.28;20.13;;;;;;;;;;5054080;28;20023;-70
2024/03/10 07:34:14;;;;;;;53.08;21.58;;;;;;;;;;5053861;28;20017;-70
2024/03/10 07:37:00;;;;;;;56.00;21.13;;;;;;;;;;5053176;28;20036;-71
2024/03/10 07:39:46;;;;;;;57.58;22.45;;;;;;;;;;5053843;28;20483;-71
2024/03/10 07:42:31;;;;;;;65.13;22.77;;;;;;;;;;5054064;28;20048;-70
2024/03/10 07:45:17;;;;;;;60.45;21.80;;;;;;;;;;5053700;28;20132;-70
2024/03/10 07:48:05;;;;;;;58.95;21.38;;;;;;;;;;5032578;28;20459;-70
2024/03/10 07:50:51;;;;;;;63.75;23.52;;;;;;;;;;5052948;28;20035;-70
2024/03/10 07:53:36;;;;;;;50.95;21.00;;;;;;;;;;5054652;28;20021;-71
2024/03/10 07:56:22;;;;;;;54.78;21.90;;;;;;;;;;5052797;28;20020;-71
2024/03/10 07:59:08;;;;;;;58.58;21.25;;;;;;;;;;5053924;28;20433;-71
2024/03/10 08:01:54;;;;;;;56.78;21.10;;;;;;;;;;5037665;28;20456;-70
2024/03/10 08:04:40;;;;;;;58.88;21.05;;;;;;;;;;5034845;28;20041;-70
2024/03/10 08:07:26;;;;;;;51.65;20.83;;;;;;;;;;5033124;28;20110;-70
2024/03/10 08:10:15;;;;;;;61.75;21.63;;;;;;;;;;5052079;28;20078;-70
2024/03/10 08:13:01;;;;;;;54.45;20.20;;;;;;;;;;5052728;28;20029;-70
2024/03/10 08:15:47;;;;;;;59.67;23.73;;;;;;;;;;5052710;28;20048;-70
2024/03/10 08:18:32;;;;;;;57.22;22.02;;;;;;;;;;5050613;28;20047;-70
2024/03/10 08:21:18;;;;;;;63.85;21.75;;;;;;;;;;5034299;28;20021;-70
2024/03/10 08:24:05;;;;;;;54.53;22.15;;;;;;;;;;5019501;28;20375;-70
2024/03/10 08:26:52;;;;;;;55.63;20.00;;;;;;;;;;5022965;28;20032;-70
2024/03/10 08:29:38;;;;;;;53.25;22.15;;;;;;;;;;5037929;28;20036;-69
2024/03/10 08:32:24;;;;;;;50.10;20.42;;;;;;;;;;5051680;28;20571;-70
2024/03/10 08:35:09;;;;;;;56.80;22.60;;;;;;;;;;5052190;28;20094;-70
2024/03/10 08:37:55;;;;;;;62.20;22.13;;;;;;;;;;5052641;28;20036;-70
2024/03/10 08:40:41;;;;;;;62.10;23.33;;;;;;;;;;5052481;28;20113;-70
2024/03/10 08:43:28;;;;;;;59.63;22.33;;;;;;;;;;5050952;28;20083;-70
2024/03/10 08:46:13;;;;;;;55.13;21.98;;;;;;;;;;5037629;28;20083;-71
2024/03/10 08:49:00;;;;;;;63.35;22.45;;;;;;;;;;5051312;28;20229;-70
2024/03/10 08:51:48;;;;;;;59.75;22.48;;;;;;;;;;5052921;28;20108;-71
2024/03/10 08:54:37;;;;;;;64.70;23.85;;;;;;;;;;5048840;28;20068;-70
2024/03/10 08:57:22;;;;;;;67.88;23.50;;;;;;;;;;5032746;28;20026;-71
2024/03/10 09:00:13;;;;;;;56.63;22.08;;;;;;;;;;5039303;28;20022;-71
2024/03/10 09:02:59;;;;;;;58.30;23.85;;;;;;;;;;5051395;28;20116;-70
2024/03/10 09:05:46;;;;;;;54.45;20.85;;;;;;;;;;5051688;28;20037;-70
2024/03/10 09:08:32;;;;;;;62.00;25.52;;;;;;;;;;5052208;28;20033;-70
2024/03/10 09:11:17;;;;;;;66.38;25.08;;;;;;;;;;5038130;28;20021;-70
2024/03/10 09:14:03;;;;;;;65.95;24.67;;;;;;;;;;5051451;28;20035;-71
2024/03/10 09:16:50;;;;;;;64.68;27.10;;;;;;;;;;5037440;28;20478;-71
2024/03/10 09:19:36;;;;;;;66.35;25.60;;;;;;;;;;5036467;28;20029;-71
2024/03/10 09:22:22;;;;;;;64.65;22.80;;;;;;;;;;5038024;28;20029;-71
2024/03/10 09:25:20;;;;;;;58.25;23.23;;;;;;;;;;5051125;28;20032;-71
2024/03/10 09:28:05;;;;;;;61.17;25.08;;;;;;;;;;5050334;28;20063;-71
2024/03/10 09:30:51;;;;;;;57.78;21.92;;;;;;;;;;5051653;28;20074;-71
2024/03/10 09:33:37;;;;;;;68.03;24.38;;;;;;;;;;5051336;28;20449;-69
2024/03/10 09:36:24;;;;;;;66.05;23.73;;;;;;;;;;5046571;28;20572;-70
2024/03/10 09:39:12;;;;;;;63.92;23.13;;;;;;;;;;5051194;28;20435;-69
2024/03/10 09:41:58;;;;;;;58.17;22.63;;;;;;;;;;5035074;28;20056;-69
2024/03/10 09:44:46;;;;;;;63.08;22.58;;;;;;;;;;5051993;28;20086;-69
2024/03/10 09:47:33;;;;;;;60.95;21.60;;;;;;;;;;5050772;28;20037;-69
2024/03/10 09:50:23;;;;;;;57.40;23.70;;;;;;;;;;5032383;28;20024;-69
2024/03/10 09:53:09;;;;;;;60.85;23.70;;;;;;;;;;5021352;28;20108;-69
2024/03/10 09:55:55;;;;;;;62.67;24.98;;;;;;;;;;5049784;28;20055;-69
2024/03/10 09:58:50;;;;;;;61.33;23.42;;;;;;;;;;5050163;28;20047;-69
2024/03/10 10:01:36;;;;;;;57.67;23.23;;;;;;;;;;5048843;28;20041;-69
2024/03/10 10:04:25;;;;;;;61.83;25.15;;;;;;;;;;5037391;28;20047;-69
2024/03/10 10:07:12;;;;;;;56.00;21.85;;;;;;;;;;5052691;28;20020;-69
2024/03/10 10:09:59;;;;;;;56.67;24.10;;;;;;;;;;5052085;28;20017;-69
2024/03/10 10:12:45;;;;;;;59.35;22.50;;;;;;;;;;5026386;28;20410;-69
2024/03/10 10:15:34;;;;;;;63.10;25.33;;;;;;;;;;5018248;28;20029;-70
2024/03/10 10:18:21;;;;;;;55.65;23.17;;;;;;;;;;5028618;28;20575;-69
2024/03/10 10:21:10;;;;;;;66.68;22.77;;;;;;;;;;5038593;28;20031;-69
2024/03/10 10:23:57;;;;;;;64.72;24.50;;;;;;;;;;5050749;28;20120;-69
2024/03/10 10:26:43;;;;;;;56.20;22.90;;;;;;;;;;5037635;28;20025;-69
2024/03/10 10:29:31;;;;;;;62.55;24.55;;;;;;;;;;5034506;28;20514;-69
2024/03/10 10:32:22;;;;;;;54.42;21.85;;;;;;;;;;5036277;28;20104;-69
2024/03/10 10:35:09;;;;;;;59.80;23.40;;;;;;;;;;5033957;28;20037;-69
2024/03/10 10:37:54;;;;;;;71.75;23.42;;;;;;;;;;5031611;28;20380;-69
2024/03/10 10:40:58;;;;;;;57.83;23.60;;;;;;;;;;5034984;28;20025;-69
2024/03/10 10:43:45;;;;;;;55.13;23.55;;;;;;;;;;5043022;28;20025;-69
2024/03/10 10:46:32;;;;;;;69.07;24.23;;;;;;;;;;5054507;28;20084;-69
2024/03/10 10:49:19;;;;;;;73.63;26.60;;;;;;;;;;5038121;28;20087;-69
2024/03/10 10:52:05;;;;;;;58.75;24.20;;;;;;;;;;5054962;28;20025;-69
2024/03/10 10:54:51;;;;;;;63.45;24.13;;;;;;;;;;5045096;28;20121;-69
2024/03/10 10:57:41;;;;;;;58.78;24.23;;;;;;;;;;5052934;28;20021;-69
2024/03/10 11:00:27;;;;;;;61.33;23.10;;;;;;;;;;5049409;28;20406;-70
2024/03/10 11:03:17;;;;;;;59.03;23.63;;;;;;;;;;5054719;28;20028;-69
2024/03/10 11:06:03;;;;;;;58.97;22.77;;;;;;;;;;5034750;28;20494;-69
2024/03/10 11:08:52;;;;;;;64.85;26.67;;;;;;;;;;5020153;28;20403;-70
2024/03/10 11:11:44;;;;;;;59.78;24.10;;;;;;;;;;5027489;28;20025;-70
2024/03/10 11:14:30;;;;;;;60.08;23.38;;;;;;;;;;5018968;28;20021;-69
2024/03/10 11:17:17;;;;;;;61.20;23.88;;;;;;;;;;5078466;22;20076;-68
2024/03/10 11:20:04;;;;;;;60.60;24.63;;;;;;;;;;5074413;28;20020;-69
2024/03/10 11:22:54;;;;;;;60.65;24.80;;;;;;;;;;5060718;28;20179;-69
2024/03/10 11:25:52;;;;;;;;;;;;;;;;;;5064569;28;20033;-69
2024/03/10 11:28:54;;;;;;;57.25;23.13;;;;;;;;;;5021287;28;20367;-69
2024/03/10 11:31:40;;;;;;;61.15;24.25;;;;;;;;;;5040642;28;20403;-69
2024/03/10 11:34:26;;;;;;;68.80;25.05;;;;;;;;;;5035235;28;20084;-69
2024/03/10 11:37:16;;;;;;;59.10;22.10;;;;;;;;;;5052961;28;20490;-69
2024/03/10 11:40:06;;;;;;;;;;;;;;;;;;5049903;28;20082;-69
2024/03/10 11:42:52;;;;;;;;;;;;;;;;;;5023100;28;20337;-68
2024/03/10 11:45:41;;;;;;;65.50;23.17;;;;;;;;;;5040958;28;20366;-69
2024/03/10 11:48:29;;;;;;;60.70;23.60;;;;;;;;;;5054059;28;20029;-68
2024/03/10 11:51:15;;;;;;;62.33;23.27;;;;;;;;;;5044897;28;20020;-69
2024/03/10 11:54:07;;;;;;;51.08;21.95;;;;;;;;;;5059030;28;20083;-69
2024/03/10 11:56:53;;;;;;;55.42;23.45;;;;;;;;;;5033870;28;20022;-69
2024/03/10 11:59:38;;;;;;;61.47;24.58;;;;;;;;;;5041546;28;20059;-69
2024/03/10 12:02:25;;;;;;;62.65;23.45;;;;;;;;;;5067846;28;20444;-69
2024/03/10 12:05:11;;;;;;;60.22;23.48;;;;;;;;;;5060362;28;20016;-68
2024/03/10 12:07:58;;;;;;;54.45;23.17;;;;;;;;;;5051228;28;20029;-69
2024/03/10 12:10:43;;;;;;;62.20;23.20;;;;;;;;;;5018360;28;20092;-68
2024/03/10 12:13:30;;;;;;;53.80;22.45;;;;;;;;;;5062733;28;20028;-68
2024/03/10 12:16:15;;;;;;;55.75;21.80;;;;;;;;;;5072685;28;20032;-67
2024/03/10 12:19:01;;;;;;;56.92;22.08;;;;;;;;;;5050645;28;20026;-67
2024/03/10 12:21:47;;;;;;;52.25;23.00;;;;;;;;;;5042271;28;20055;-67
2024/03/10 12:24:32;;;;;;;56.47;23.00;;;;;;;;;;5041906;28;20021;-67
2024/03/10 12:27:18;;;;;;;59.10;22.65;;;;;;;;;;5037705;28;20467;-67
2024/03/10 12:30:09;;;;;;;55.97;23.55;;;;;;;;;;5041276;28;20025;-68
2024/03/10 12:32:56;;;;;;;53.33;23.38;;;;;;;;;;5042792;28;20026;-69
2024/03/10 12:35:42;;;;;;;51.45;20.02;;;;;;;;;;5045056;28;20041;-68
2024/03/10 12:38:28;;;;;;;51.00;20.60;;;;;;;;;;5045052;28;20395;-69
2024/03/10 12:41:14;;;;;;;57.60;23.27;;;;;;;;;;5044545;28;20030;-68
2024/03/10 12:44:00;;;;;;;47.42;21.40;;;;;;;;;;5043401;28;20048;-68
2024/03/10 12:46:46;;;;;;;56.95;21.75;;;;;;;;;;5038974;28;20067;-68
2024/03/10 12:49:33;;;;;;;53.22;20.35;;;;;;;;;;5038951;28;20516;-68
2024/03/10 12:52:19;;;;;;;50.95;20.73;;;;;;;;;;5044195;28;20055;-68
2024/03/10 12:55:07;;;;;;;51.20;21.23;;;;;;;;;;5035261;28;20036;-67
2024/03/10 12:57:56;;;;;;;49.55;21.17;;;;;;;;;;5037764;28;20056;-68
2024/03/10 13:00:42;;;;;;;47.45;19.67;;;;;;;;;;5037690;28;20450;-68
2024/03/10 13:03:28;;;;;;;52.38;20.65;;;;;;;;;;5035366;28;20025;-68
2024/03/10 13:06:14;;;;;;;55.92;20.42;;;;;;;;;;5037686;28;20102;-68
2024/03/10 13:09:00;;;;;;;44.88;20.05;;;;;;;;;;5040193;28;20017;-67
2024/03/10 13:11:46;;;;;;;48.42;18.20;;;;;;;;;;5040227;28;20033;-68
2024/03/10 13:14:32;;;;;;;57.10;22.70;;;;;;;;;;5037923;28;20044;-68
2024/03/10 13:17:18;;;;;;;44.58;19.42;;;;;;;;;;5035469;28;20112;-68
2024/03/10 13:20:11;;;;;;;52.45;21.95;;;;;;;;;;5043237;28;20056;-68
2024/03/10 13:22:56;;;;;;;48.92;20.77;;;;;;;;;;5024311;28;20552;-67
2024/03/10 13:25:42;;;;;;;49.47;20.15;;;;;;;;;;5042319;28;20029;-67
2024/03/10 13:28:28;;;;;;;45.20;20.08;;;;;;;;;;5041909;28;20029;-67
2024/03/10 13:31:14;;;;;;;46.38;18.95;;;;;;;;;;5037423;28;20104;-69
2024/03/10 13:34:01;;;;;;;43.38;18.38;;;;;;;;;;5041882;28;20032;-69
2024/03/10 13:36:47;;;;;;;47.95;19.33;;;;;;;;;;5036077;28;20107;-69
2024/03/10 13:39:32;;;;;;;48.67;22.85;;;;;;;;;;5037582;28;20033;-69
2024/03/10 13:42:18;;;;;;;53.03;20.90;;;;;;;;;;5040384;28;20033;-69
2024/03/10 13:45:05;;;;;;;47.17;19.42;;;;;;;;;;5038435;28;20025;-68
2024/03/10 13:47:51;;;;;;;43.70;18.23;;;;;;;;;;5024698;28;20116;-66
2024/03/10 13:50:37;;;;;;;39.55;18.60;;;;;;;;;;5032773;28;20057;-68
2024/03/10 13:53:23;;;;;;;42.05;19.27;;;;;;;;;;5039921;28;20049;-67
2024/03/10 13:56:10;;;;;;;49.97;19.00;;;;;;;;;;5042363;28;20026;-68
2024/03/10 13:58:56;;;;;;;51.13;20.13;;;;;;;;;;5031227;28;20040;-68
2024/03/10 14:01:42;;;;;;;43.58;19.42;;;;;;;;;;5062457;28;20024;-68
2024/03/10 14:04:27;;;;;;;41.25;18.13;;;;;;;;;;5034636;28;20033;-68
2024/03/10 14:07:13;;;;;;;47.15;18.67;;;;;;;;;;5058196;28;20051;-68
2024/03/10 14:09:59;;;;;;;39.97;17.73;;;;;;;;;;5071286;28;20020;-68
2024/03/10 14:12:45;;;;;;;45.38;19.02;;;;;;;;;;5057119;28;20028;-68
2024/03/10 14:15:33;;;;;;;40.30;18.90;;;;;;;;;;5071580;28;20398;-68
2024/03/10 14:18:19;;;;;;;47.35;19.40;;;;;;;;;;5075121;28;20111;-68
2024/03/10 14:21:08;;;;;;;47.25;20.15;;;;;;;;;;5075166;28;20029;-68
2024/03/10 14:23:55;;;;;;;45.05;18.30;;;;;;;;;;5075096;28;20074;-68
2024/03/10 14:26:43;;;;;;;51.08;18.40;;;;;;;;;;5062679;28;20382;-68
2024/03/10 14:29:29;;;;;;;42.00;18.33;;;;;;;;;;5075281;28;20039;-68
2024/03/10 14:32:15;;;;;;;44.50;18.08;;;;;;;;;;5075000;28;20021;-68
2024/03/10 14:35:00;;;;;;;43.90;17.73;;;;;;;;;;5063919;28;20016;-68
2024/03/10 14:37:49;;;;;;;50.40;19.45;;;;;;;;;;5074711;28;20078;-68
2024/03/10 14:40:34;;;;;;;44.30;18.80;;;;;;;;;;5074956;28;20031;-68
2024/03/10 14:43:20;;;;;;;45.13;18.95;;;;;;;;;;5075234;28;20529;-68
2024/03/10 14:46:05;;;;;;;44.30;18.10;;;;;;;;;;5034698;28;20033;-68
2024/03/10 14:48:51;;;;;;;46.55;19.55;;;;;;;;;;5035803;28;20025;-68
2024/03/10 14:51:37;;;;;;;41.88;17.15;;;;;;;;;;5036581;28;20036;-69
2024/03/10 14:54:23;;;;;;;46.45;18.98;;;;;;;;;;5040535;28;20032;-71
2024/03/10 14:57:09;;;;;;;44.83;17.58;;;;;;;;;;5046438;28;20029;-69
2024/03/10 14:59:59;;;;;;;49.05;19.38;;;;;;;;;;5044409;28;20029;-68
2024/03/10 15:02:45;;;;;;;45.97;18.17;;;;;;;;;;5052715;28;20031;-67
2024/03/10 15:05:32;;;;;;;43.50;18.40;;;;;;;;;;5054003;28;20387;-67
2024/03/10 15:08:17;;;;;;;43.20;19.10;;;;;;;;;;5074451;28;20049;-68
2024/03/10 15:11:05;;;;;;;49.10;18.88;;;;;;;;;;5072615;28;20530;-67
2024/03/10 15:13:50;;;;;;;45.22;17.27;;;;;;;;;;5061405;28;20024;-68
2024/03/10 15:16:36;;;;;;;44.70;19.45;;;;;;;;;;5051487;28;20033;-68
2024/03/10 15:19:22;;;;;;;41.65;18.63;;;;;;;;;;5059525;28;20023;-68
2024/03/10 15:22:07;;;;;;;45.58;16.80;;;;;;;;;;5073729;28;20032;-67
2024/03/10 15:24:53;;;;;;;44.75;18.40;;;;;;;;;;5074434;28;20020;-68
2024/03/10 15:27:39;;;;;;;52.00;18.65;;;;;;;;;;5073397;28;20041;-67
2024/03/10 15:30:25;;;;;;;39.63;16.92;;;;;;;;;;5074134;28;20103;-68
2024/03/10 15:33:11;;;;;;;45.72;18.20;;;;;;;;;;5074440;28;20020;-68
2024/03/10 15:35:58;;;;;;;42.97;16.65;;;;;;;;;;5073967;28;20025;-68
2024/03/10 15:38:44;;;;;;;51.25;19.20;;;;;;;;;;5073649;28;20048;-68
2024/03/10 15:41:31;;;;;;;47.22;16.73;;;;;;;;;;5073308;28;20020;-67
2024/03/10 15:44:17;;;;;;;45.88;18.27;;;;;;;;;;5063633;28;20080;-68
2024/03/10 15:47:04;;;;;;;38.85;17.23;;;;;;;;;;5034869;28;20056;-68
2024/03/10 15:49:50;;;;;;;48.15;18.23;;;;;;;;;;5034741;28;20026;-68
2024/03/10 15:52:36;;;;;;;40.72;18.58;;;;;;;;;;5035084;28;20025;-67
2024/03/10 15:55:23;;;;;;;47.67;19.83;;;;;;;;;;5059645;28;20449;-67
2024/03/10 15:58:10;;;;;;;42.83;16.65;;;;;;;;;;5073279;28;20027;-67
2024/03/10 16:00:57;;;;;;;46.38;16.92;;;;;;;;;;5073591;28;20022;-68
2024/03/10 16:03:48;;;;;;;44.88;20.02;;;;;;;;;;5072538;28;20024;-67
2024/03/10 16:06:35;;;;;;;47.00;18.60;;;;;;;;;;5031758;28;20490;-67
2024/03/10 16:09:21;;;;;;;43.92;19.35;;;;;;;;;;5034002;28;20510;-67
2024/03/10 16:12:08;;;;;;;41.70;19.05;;;;;;;;;;5041399;28;20033;-67
2024/03/10 16:14:54;;;;;;;46.85;19.05;;;;;;;;;;5065190;28;20043;-67
2024/03/10 16:17:39;;;;;;;46.45;17.75;;;;;;;;;;5072983;28;20097;-68
2024/03/10 16:20:25;;;;;;;51.28;19.95;;;;;;;;;;5073081;28;20021;-68
2024/03/10 16:23:11;;;;;;;39.88;16.40;;;;;;;;;;5055667;28;20033;-68
2024/03/10 16:25:57;;;;;;;45.60;18.15;;;;;;;;;;5057015;28;20033;-67
2024/03/10 16:28:44;;;;;;;45.33;18.13;;;;;;;;;;5052505;28;20025;-68
2024/03/10 16:31:30;;;;;;;38.90;17.00;;;;;;;;;;5040630;28;20033;-68
2024/03/10 16:34:15;;;;;;;42.75;17.92;;;;;;;;;;5033589;28;20064;-68